Connecticut — WCY4995 — position and weather

sailwx.info

Track history (hours):
 
Tides and Currents Weather Stations Pressure Air Temp Water Temp Dewpoint Dewpoint Depression Visibility Wind Speed Wind Dir Waves Ship Positions

Oceanographic research ship Connecticut (USA)

Detailed information on ship capabilities available from University of Delaware's Ocean Information Center.

Owner: CONNECTICUT, STATE OF, GROTON, CT. More information available from US FCC via Universal Licensing System and Coast Guard Vessel Documentation Center.

Last reported at 2017-Nov-16 03:24 UTC. Time now 2017-Nov-22 07:24 UTC.
Position N 41°14' W 072°15'.

; draft 3 m.

Type: Other ship. MMSI: 367359940.

Date/timePositionNaut miles runAvg speedWind from/ knotsBaromVisibWave heightAir tempDewpointWater temp
2017-Nov-16 03:24N 41°14' W 072°15'410.4
2017-Nov-16 03:00N 41°13' W 072°20'6 9.5
2017-Nov-16 02:21N 41°11' W 072°28'3 9.5
2017-Nov-16 02:00N 41°09' W 072°32'5 9.0
2017-Nov-16 01:30N 41°09' W 072°38'1 0.9
2017-Nov-16 00:16N 41°08' W 072°40'0 0.0
2017-Nov-15 23:56N 41°08' W 072°40'0 0.7
2017-Nov-15 23:23N 41°08' W 072°40'0 0.3
2017-Nov-15 22:58N 41°08' W 072°40'0 0.3
2017-Nov-15 22:27N 41°08' W 072°40'1 0.1
2017-Nov-15 05:28N 41°09' W 072°39'4 8.4
2017-Nov-15 05:00N 41°10' W 072°34'4 8.0
2017-Nov-15 04:30N 41°11' W 072°29'4 7.8
2017-Nov-15 04:00N 41°12' W 072°24'4 8.0
2017-Nov-15 03:30N 41°13' W 072°19'  
2017-Nov-07 16:04N 41°41' W 071°19'0 8.2
2017-Nov-07 16:00N 41°42' W 071°18'  
Track history (hours):
 
Tides and Currents Weather Stations Pressure Air Temp Water Temp Dewpoint Dewpoint Depression Visibility Wind Speed Wind Dir Waves Ship Positions

Oceanographic research ship Connecticut (USA)

Detailed information on ship capabilities available from University of Delaware's Ocean Information Center.

Owner: CONNECTICUT, STATE OF, GROTON, CT. More information available from US FCC via Universal Licensing System and Coast Guard Vessel Documentation Center.

Last reported at 2017-Nov-16 03:24 UTC. Time now 2017-Nov-22 07:24 UTC.
Position N 41°14' W 072°15'.

; draft 3 m.

Type: Other ship. MMSI: 367359940.

Date/timePositionNaut miles runAvg speedWind from/ knotsBaromVisibWave heightAir tempDewpointWater temp
2017-Nov-16 03:24N 41°14' W 072°15'410.4
2017-Nov-16 03:00N 41°13' W 072°20'6 9.5
2017-Nov-16 02:21N 41°11' W 072°28'3 9.5
2017-Nov-16 02:00N 41°09' W 072°32'5 9.0
2017-Nov-16 01:30N 41°09' W 072°38'1 0.9
2017-Nov-16 00:16N 41°08' W 072°40'0 0.0
2017-Nov-15 23:56N 41°08' W 072°40'0 0.7
2017-Nov-15 23:23N 41°08' W 072°40'0 0.3
2017-Nov-15 22:58N 41°08' W 072°40'0 0.3
2017-Nov-15 22:27N 41°08' W 072°40'1 0.1
2017-Nov-15 05:28N 41°09' W 072°39'4 8.4
2017-Nov-15 05:00N 41°10' W 072°34'4 8.0
2017-Nov-15 04:30N 41°11' W 072°29'4 7.8
2017-Nov-15 04:00N 41°12' W 072°24'4 8.0
2017-Nov-15 03:30N 41°13' W 072°19'  
2017-Nov-07 16:04N 41°41' W 071°19'0 8.2
2017-Nov-07 16:00N 41°42' W 071°18'  

Dump ship's entire track history